createdAt,value
2022-12-24T00:01:09.360Z,15.18
2022-12-24T00:03:39.208Z,15.30
2022-12-24T00:06:07.591Z,11.07
2022-12-24T00:08:35.649Z,9.10
2022-12-24T00:11:03.409Z,11.02
2022-12-24T00:13:32.442Z,8.70
2022-12-24T00:16:00.338Z,5.63
2022-12-24T00:18:28.601Z,7.88
2022-12-24T00:20:56.299Z,7.85
2022-12-24T00:23:24.366Z,9.75
2022-12-24T00:25:52.115Z,8.20
2022-12-24T00:28:19.820Z,7.32
2022-12-24T00:30:49.262Z,10.98
2022-12-24T00:33:20.938Z,9.82
2022-12-24T00:35:53.583Z,7.20
2022-12-24T00:38:21.429Z,7.90
2022-12-24T00:40:49.108Z,7.97
2022-12-24T00:43:16.918Z,8.35
2022-12-24T00:45:44.679Z,7.18
2022-12-24T00:48:13.755Z,8.90
2022-12-24T00:50:41.447Z,7.47
2022-12-24T00:53:09.179Z,9.18
2022-12-24T00:55:36.904Z,6.63
2022-12-24T00:58:04.585Z,10.27
2022-12-24T01:00:32.344Z,9.20
2022-12-24T01:03:00.416Z,10.30
2022-12-24T01:05:28.525Z,9.20
2022-12-24T01:07:56.194Z,9.00
2022-12-24T01:10:23.958Z,8.75
2022-12-24T01:12:51.585Z,6.47
2022-12-24T01:15:19.431Z,13.88
2022-12-24T01:17:47.106Z,9.82
2022-12-24T01:20:16.691Z,14.40
2022-12-24T01:22:46.204Z,18.42
2022-12-24T01:25:14.193Z,9.80
2022-12-24T01:27:42.011Z,10.38
2022-12-24T01:30:12.634Z,10.52
2022-12-24T01:32:40.515Z,18.88
2022-12-24T01:35:09.657Z,14.23
2022-12-24T01:37:39.175Z,14.40
2022-12-24T01:40:25.995Z,14.50
2022-12-24T01:43:12.324Z,12.27
2022-12-24T01:48:18.593Z,12.45
2022-12-24T01:50:46.875Z,12.73
2022-12-24T01:53:16.524Z,17.27
2022-12-24T01:55:46.874Z,13.45
2022-12-24T01:58:19.113Z,12.88
2022-12-24T02:00:47.051Z,12.35
2022-12-24T02:03:14.968Z,16.17
2022-12-24T02:05:48.299Z,14.65
2022-12-24T02:08:17.219Z,19.55
2022-12-24T02:10:46.660Z,14.05
2022-12-24T02:13:15.837Z,18.55
2022-12-24T02:15:57.291Z,24.75
2022-12-24T02:18:33.144Z,17.10
2022-12-24T02:21:42.511Z,21.65
2022-12-24T02:24:33.665Z,21.58
2022-12-24T02:27:12.448Z,22.50
2022-12-24T02:30:11.821Z,20.70
2022-12-24T02:33:02.834Z,22.77
2022-12-24T02:35:39.023Z,21.83
2022-12-24T02:38:12.655Z,21.23
2022-12-24T02:40:43.997Z,22.20
2022-12-24T02:43:16.071Z,18.10
2022-12-24T02:45:55.206Z,30.00
2022-12-24T02:48:28.956Z,26.88
2022-12-24T02:51:04.832Z,21.25
2022-12-24T02:53:33.167Z,22.77
2022-12-24T02:56:16.985Z,24.40
2022-12-24T02:58:57.843Z,20.50
2022-12-24T03:01:37.836Z,24.33
2022-12-24T03:04:15.911Z,18.90
2022-12-24T03:06:49.662Z,23.15
2022-12-24T03:09:26.384Z,16.02
2022-12-24T03:12:00.493Z,23.52
2022-12-24T03:14:30.092Z,20.52
2022-12-24T03:16:59.888Z,28.98
2022-12-24T03:19:28.484Z,20.85
2022-12-24T03:21:59.040Z,32.35
2022-12-24T03:24:26.995Z,33.25
2022-12-24T03:26:54.708Z,18.33
2022-12-24T03:29:22.434Z,26.80
2022-12-24T03:31:52.370Z,22.08
2022-12-24T03:34:21.658Z,27.73
2022-12-24T03:36:51.141Z,18.10
2022-12-24T03:39:19.170Z,29.30
2022-12-24T03:41:46.915Z,23.80
2022-12-24T03:44:14.717Z,29.88
2022-12-24T03:46:42.684Z,27.60
2022-12-24T03:49:10.481Z,22.50
2022-12-24T03:51:39.510Z,27.38
2022-12-24T03:54:07.145Z,28.58
2022-12-24T03:56:34.894Z,23.13
2022-12-24T03:59:02.642Z,31.35
2022-12-24T04:01:30.461Z,25.50
2022-12-24T04:03:58.320Z,23.15
2022-12-24T04:06:26.008Z,23.55
2022-12-24T04:08:55.022Z,21.10
2022-12-24T04:11:22.700Z,17.20
2022-12-24T04:13:50.360Z,24.45
2022-12-24T04:16:18.501Z,28.92
2022-12-24T04:18:46.386Z,26.40
2022-12-24T04:21:14.230Z,25.30
2022-12-24T04:23:43.226Z,19.10
2022-12-24T04:26:14.823Z,34.10
2022-12-24T04:28:43.567Z,19.88
2022-12-24T04:31:13.936Z,20.48
2022-12-24T04:33:41.910Z,26.25
2022-12-24T04:36:12.726Z,25.55
2022-12-24T04:38:40.458Z,26.73
2022-12-24T04:41:12.429Z,29.75
2022-12-24T04:43:44.135Z,26.02
2022-12-24T04:46:14.829Z,15.85
2022-12-24T04:48:43.031Z,23.38
2022-12-24T04:51:11.168Z,34.65
2022-12-24T04:53:40.198Z,24.67
2022-12-24T04:56:11.325Z,16.35
2022-12-24T04:58:39.005Z,26.33
2022-12-24T05:01:09.274Z,29.00
2022-12-24T05:03:37.076Z,20.00
2022-12-24T05:06:04.998Z,26.58
2022-12-24T05:08:33.732Z,25.10
2022-12-24T05:11:02.541Z,19.67
2022-12-24T05:13:40.447Z,19.98
2022-12-24T05:16:14.254Z,23.90
2022-12-24T05:18:42.650Z,24.45
2022-12-24T05:21:11.706Z,22.10
2022-12-24T05:23:57.296Z,29.05
2022-12-24T05:26:31.411Z,29.30
2022-12-24T05:29:00.493Z,17.10
2022-12-24T05:31:31.435Z,29.55
2022-12-24T05:33:59.168Z,23.73
2022-12-24T05:36:27.098Z,21.80
2022-12-24T05:38:55.184Z,27.23
2022-12-24T05:41:23.063Z,22.92
2022-12-24T05:43:51.192Z,27.92
2022-12-24T05:46:21.238Z,23.73
2022-12-24T05:48:51.560Z,27.13
2022-12-24T05:51:22.208Z,35.95
2022-12-24T05:53:50.384Z,22.92
2022-12-24T05:56:21.252Z,31.52
2022-12-24T05:58:49.283Z,29.10
2022-12-24T06:01:17.221Z,28.45
2022-12-24T06:03:45.148Z,21.08
2022-12-24T06:06:19.087Z,26.70
2022-12-24T06:08:46.880Z,32.25
2022-12-24T06:11:16.894Z,27.38
2022-12-24T06:13:45.300Z,23.70
2022-12-24T06:16:15.477Z,27.55
2022-12-24T06:18:43.772Z,26.92
2022-12-24T06:21:12.060Z,27.77
2022-12-24T06:23:43.248Z,26.15
2022-12-24T06:26:13.488Z,21.15
2022-12-24T06:28:41.405Z,25.10
2022-12-24T06:31:13.622Z,30.17
2022-12-24T06:33:41.915Z,28.48
2022-12-24T06:36:16.930Z,31.38
2022-12-24T06:38:46.953Z,34.83
2022-12-24T06:41:15.449Z,25.92
2022-12-24T06:43:44.974Z,24.48
2022-12-24T06:46:13.138Z,27.42
2022-12-24T06:48:40.913Z,21.52
2022-12-24T06:51:08.590Z,26.75
2022-12-24T06:53:36.284Z,34.25
2022-12-24T06:56:06.268Z,31.02
2022-12-24T06:58:34.686Z,29.05
2022-12-24T07:01:02.522Z,26.33
2022-12-24T07:03:30.360Z,18.98
2022-12-24T07:05:58.194Z,24.17
2022-12-24T07:08:25.944Z,37.05
2022-12-24T07:10:54.804Z,22.30
2022-12-24T07:13:23.900Z,29.05
2022-12-24T07:15:58.654Z,26.40
2022-12-24T07:18:26.463Z,31.63
2022-12-24T07:20:54.157Z,24.55
2022-12-24T07:23:22.327Z,24.05
2022-12-24T07:25:50.048Z,25.23
2022-12-24T07:28:21.037Z,34.75
2022-12-24T07:30:54.794Z,30.20
2022-12-24T07:33:22.534Z,27.25
2022-12-24T07:35:55.698Z,32.65
2022-12-24T07:38:23.665Z,29.08
2022-12-24T07:40:51.368Z,22.00
2022-12-24T07:43:19.036Z,23.40
2022-12-24T07:45:46.835Z,23.05
2022-12-24T07:48:15.921Z,26.13
2022-12-24T07:50:43.653Z,28.05
2022-12-24T07:53:11.357Z,24.55
2022-12-24T07:55:39.066Z,25.55
2022-12-24T07:58:06.759Z,36.38
2022-12-24T08:00:34.473Z,28.83
2022-12-24T08:03:02.254Z,26.80
2022-12-24T08:05:35.239Z,25.52
2022-12-24T08:08:03.183Z,35.78
2022-12-24T08:10:30.861Z,26.67
2022-12-24T08:12:58.658Z,23.00
2022-12-24T08:15:26.379Z,30.00
2022-12-24T08:17:54.112Z,25.70
2022-12-24T08:20:21.835Z,21.83
2022-12-24T08:22:50.995Z,25.58
2022-12-24T08:25:18.880Z,21.60
2022-12-24T08:27:46.564Z,17.38
2022-12-24T08:30:20.847Z,13.52
2022-12-24T08:32:49.214Z,27.25
2022-12-24T08:35:17.193Z,17.63
2022-12-24T08:37:44.833Z,22.33
2022-12-24T08:40:15.220Z,29.58
2022-12-24T08:42:43.033Z,27.05
2022-12-24T08:45:11.839Z,20.23
2022-12-24T08:47:40.181Z,25.58
2022-12-24T08:50:09.842Z,22.33
2022-12-24T08:52:37.704Z,22.60
2022-12-24T08:55:06.200Z,28.13
2022-12-24T08:57:37.742Z,30.92
2022-12-24T09:00:07.563Z,23.27
2022-12-24T09:02:35.760Z,21.92
2022-12-24T09:05:03.647Z,18.70
2022-12-24T09:07:31.353Z,21.67
2022-12-24T09:09:59.065Z,19.33
2022-12-24T09:12:26.761Z,16.83
2022-12-24T09:15:01.201Z,13.85
2022-12-24T09:19:58.553Z,12.98
2022-12-24T09:22:26.226Z,14.05
2022-12-24T09:24:55.067Z,21.30
2022-12-24T09:27:23.348Z,20.58
2022-12-24T09:29:51.214Z,23.27
2022-12-24T09:32:20.228Z,24.15
2022-12-24T09:34:48.044Z,24.83
2022-12-24T09:37:15.776Z,26.85
2022-12-24T09:39:43.471Z,23.80
2022-12-24T09:42:25.002Z,21.50
2022-12-24T09:44:59.476Z,32.72
2022-12-24T09:47:34.289Z,22.45
2022-12-24T09:50:05.816Z,21.25
2022-12-24T09:52:37.512Z,23.70
2022-12-24T09:55:16.717Z,25.95
2022-12-24T09:57:46.685Z,19.10
2022-12-24T10:00:21.641Z,19.42
2022-12-24T10:02:50.985Z,26.08
2022-12-24T10:05:24.880Z,24.50
2022-12-24T10:07:59.067Z,31.02
2022-12-24T10:10:32.213Z,27.83
2022-12-24T10:13:08.230Z,23.73
2022-12-24T10:15:41.698Z,20.77
2022-12-24T10:18:26.182Z,27.15
2022-12-24T10:21:00.907Z,22.65
2022-12-24T10:23:35.390Z,20.23
2022-12-24T10:26:11.997Z,21.92
2022-12-24T10:28:46.913Z,25.67
2022-12-24T10:31:15.508Z,22.63
2022-12-24T10:33:46.272Z,24.70
2022-12-24T10:36:18.771Z,19.40
2022-12-24T10:38:47.587Z,22.67
2022-12-24T10:41:17.080Z,18.85
2022-12-24T10:43:47.160Z,25.38
2022-12-24T10:46:20.689Z,18.10
2022-12-24T10:48:54.618Z,17.15
2022-12-24T10:51:38.441Z,20.08
2022-12-24T10:54:09.482Z,18.25
2022-12-24T10:56:42.857Z,16.55
2022-12-24T10:59:25.172Z,15.50
2022-12-24T11:01:53.584Z,18.38
2022-12-24T11:04:24.508Z,21.42
2022-12-24T11:06:57.851Z,16.52
2022-12-24T11:09:29.183Z,18.58
2022-12-24T11:12:00.374Z,18.92
2022-12-24T11:14:39.798Z,23.52
2022-12-24T11:17:07.791Z,20.40
2022-12-24T11:19:40.183Z,22.75
2022-12-24T11:22:18.161Z,20.83
2022-12-24T11:24:50.272Z,18.48
2022-12-24T11:27:31.530Z,19.33
2022-12-24T11:30:25.567Z,29.33
2022-12-24T11:33:21.672Z,21.33
2022-12-24T11:38:23.176Z,17.90
2022-12-24T11:40:58.996Z,25.40
2022-12-24T11:43:44.253Z,19.13
2022-12-24T11:46:22.058Z,11.68
2022-12-24T11:49:08.290Z,16.92
2022-12-24T11:51:37.939Z,14.73
2022-12-24T11:54:15.495Z,24.58
2022-12-24T11:56:48.752Z,15.73
2022-12-24T11:59:25.046Z,19.27
2022-12-24T12:01:58.463Z,25.58
2022-12-24T12:04:30.652Z,23.27
2022-12-24T12:07:07.136Z,18.27
2022-12-24T12:09:41.840Z,17.60
2022-12-24T12:12:14.338Z,22.80
2022-12-24T12:14:46.230Z,25.20
2022-12-24T12:17:25.281Z,16.13
2022-12-24T12:19:59.774Z,22.42
2022-12-24T12:22:33.828Z,22.95
2022-12-24T12:25:03.882Z,17.70
2022-12-24T12:27:36.570Z,16.45
2022-12-24T12:30:08.426Z,17.75
2022-12-24T12:32:43.976Z,13.35
2022-12-24T12:35:25.437Z,24.53
2022-12-24T12:37:58.225Z,17.60
2022-12-24T12:40:40.676Z,27.15
2022-12-24T12:43:24.737Z,21.08
2022-12-24T12:45:58.783Z,20.02
2022-12-24T12:48:47.106Z,18.45
2022-12-24T12:51:20.227Z,18.20
2022-12-24T12:54:09.346Z,19.50
2022-12-24T12:56:39.679Z,18.45
2022-12-24T12:59:15.572Z,18.42
2022-12-24T13:01:51.051Z,18.67
2022-12-24T13:04:42.696Z,19.38
2022-12-24T13:07:34.177Z,15.70
2022-12-24T13:10:29.655Z,17.98
2022-12-24T13:13:25.903Z,20.90
2022-12-24T13:16:13.053Z,22.70
2022-12-24T13:18:56.712Z,19.05
2022-12-24T13:21:27.193Z,16.08
2022-12-24T13:24:07.096Z,21.85
2022-12-24T13:26:36.415Z,14.95
2022-12-24T13:29:40.417Z,21.17
2022-12-24T13:32:48.126Z,18.75
2022-12-24T13:35:38.191Z,22.80
2022-12-24T13:38:33.515Z,18.92
2022-12-24T13:41:49.785Z,26.23
2022-12-24T13:44:25.580Z,22.55
2022-12-24T13:46:58.717Z,17.60
2022-12-24T13:49:33.950Z,22.10
2022-12-24T13:52:26.338Z,19.20
2022-12-24T13:55:15.529Z,27.52
2022-12-24T13:57:49.138Z,20.75
2022-12-24T14:00:42.906Z,23.92
2022-12-24T14:03:26.182Z,19.58
2022-12-24T14:05:57.477Z,17.90
2022-12-24T14:08:44.879Z,16.73
2022-12-24T14:11:15.309Z,27.42
2022-12-24T14:14:10.365Z,25.75
2022-12-24T14:16:48.786Z,18.23
2022-12-24T14:19:22.288Z,16.98
2022-12-24T14:21:58.181Z,20.58
2022-12-24T14:24:28.844Z,18.90
2022-12-24T14:27:01.888Z,19.90
2022-12-24T14:29:33.659Z,20.98
2022-12-24T14:32:04.612Z,23.13
2022-12-24T14:34:32.572Z,13.88
2022-12-24T14:37:04.505Z,20.65
2022-12-24T14:39:35.253Z,21.38
2022-12-24T14:42:18.570Z,15.30
2022-12-24T14:44:54.399Z,22.70
2022-12-24T14:47:31.111Z,23.40
2022-12-24T14:50:32.844Z,19.80
2022-12-24T14:53:18.896Z,13.68
2022-12-24T14:55:48.745Z,22.48
2022-12-24T14:58:24.051Z,21.90
2022-12-24T15:00:54.631Z,28.92
2022-12-24T15:03:24.420Z,22.02
2022-12-24T15:05:55.382Z,23.85
2022-12-24T15:08:29.343Z,20.42
2022-12-24T15:11:02.718Z,16.13
2022-12-24T15:13:36.953Z,20.23
2022-12-24T15:16:09.046Z,17.20
2022-12-24T15:18:43.004Z,18.10
2022-12-24T15:21:19.149Z,16.48
2022-12-24T15:23:49.642Z,13.90
2022-12-24T15:26:22.542Z,20.65
2022-12-24T15:28:55.059Z,18.48
2022-12-24T15:31:29.455Z,16.17
2022-12-24T15:33:59.137Z,20.90
2022-12-24T15:36:31.374Z,26.52
2022-12-24T15:39:01.250Z,18.55
2022-12-24T15:41:33.745Z,18.80
2022-12-24T15:44:04.161Z,22.17
2022-12-24T15:46:34.074Z,23.15
2022-12-24T15:49:03.872Z,25.85
2022-12-24T15:51:34.542Z,25.45
2022-12-24T15:54:11.492Z,23.83
2022-12-24T15:56:44.377Z,26.20
2022-12-24T15:59:28.579Z,29.35
2022-12-24T16:01:58.671Z,22.52
2022-12-24T16:04:28.458Z,22.65
2022-12-24T16:06:58.099Z,21.63
2022-12-24T16:09:43.272Z,21.77
2022-12-24T16:12:22.463Z,16.73
2022-12-24T16:14:52.639Z,17.65
2022-12-24T16:17:25.235Z,18.42
2022-12-24T16:19:55.903Z,13.13
2022-12-24T16:22:35.209Z,14.80
2022-12-24T16:25:22.943Z,19.25
2022-12-24T16:27:50.883Z,27.83
2022-12-24T16:30:19.531Z,23.30
2022-12-24T16:32:50.780Z,21.05
2022-12-24T16:35:29.181Z,19.10
2022-12-24T16:37:56.903Z,18.60
2022-12-24T16:40:27.717Z,24.05
2022-12-24T16:43:14.769Z,19.90
2022-12-24T16:45:42.758Z,23.27
2022-12-24T16:48:20.211Z,20.33
2022-12-24T16:50:48.073Z,28.67
2022-12-24T16:53:17.806Z,20.88
2022-12-24T16:55:47.508Z,18.30
2022-12-24T16:58:17.518Z,29.30
2022-12-24T17:00:46.055Z,24.00
2022-12-24T17:03:15.456Z,20.35
2022-12-24T17:05:45.203Z,27.15
2022-12-24T17:08:14.060Z,25.67
2022-12-24T17:10:41.963Z,18.70
2022-12-24T17:13:09.676Z,26.45
2022-12-24T17:15:37.469Z,30.77
2022-12-24T17:18:05.637Z,21.40
2022-12-24T17:20:34.699Z,25.60
2022-12-24T17:23:02.416Z,29.52
2022-12-24T17:25:30.114Z,17.25
2022-12-24T17:27:57.819Z,17.70
2022-12-24T17:30:25.600Z,18.70
2022-12-24T17:32:53.308Z,20.58
2022-12-24T17:35:21.002Z,16.73
2022-12-24T17:37:50.113Z,15.15
2022-12-24T17:40:18.544Z,24.35
2022-12-24T17:42:46.208Z,21.80
2022-12-24T17:45:13.898Z,24.85
2022-12-24T17:47:41.564Z,14.43
2022-12-24T17:50:10.190Z,18.50
2022-12-24T17:52:38.190Z,26.08
2022-12-24T17:55:09.009Z,25.80
2022-12-24T17:57:36.731Z,30.40
2022-12-24T18:00:05.298Z,27.00
2022-12-24T18:02:33.158Z,27.08
2022-12-24T18:05:00.980Z,29.48
2022-12-24T18:07:28.651Z,25.13
2022-12-24T18:09:56.403Z,29.90
2022-12-24T18:12:25.473Z,22.23
2022-12-24T18:14:53.180Z,21.80
2022-12-24T18:17:20.973Z,21.15
2022-12-24T18:19:48.695Z,33.65
2022-12-24T18:22:16.396Z,22.98
2022-12-24T18:24:44.227Z,25.20
2022-12-24T18:27:11.964Z,23.00
2022-12-24T18:29:42.348Z,29.45
2022-12-24T18:32:10.229Z,30.65
2022-12-24T18:34:37.874Z,25.30
2022-12-24T18:37:05.591Z,31.58
2022-12-24T18:39:33.294Z,43.58
2022-12-24T18:42:01.272Z,43.75
2022-12-24T18:44:28.965Z,22.65
2022-12-24T18:46:58.482Z,30.35
2022-12-24T18:49:26.325Z,32.30
2022-12-24T18:51:53.989Z,35.35
2022-12-24T18:54:21.767Z,32.85
2022-12-24T18:56:51.107Z,26.42
2022-12-24T18:59:19.239Z,33.38
2022-12-24T19:01:47.237Z,27.13
2022-12-24T19:04:16.703Z,38.60
2022-12-24T19:06:52.487Z,33.33
2022-12-24T19:09:20.985Z,30.50
2022-12-24T19:11:48.765Z,35.13
2022-12-24T19:14:16.442Z,32.47
2022-12-24T19:16:44.184Z,34.75
2022-12-24T19:19:12.613Z,35.45
2022-12-24T19:21:41.646Z,28.13
2022-12-24T19:24:10.551Z,26.98
2022-12-24T19:26:38.767Z,32.30
2022-12-24T19:29:06.408Z,33.03
2022-12-24T19:31:34.234Z,27.85
2022-12-24T19:34:02.088Z,41.55
2022-12-24T19:36:31.738Z,40.97
2022-12-24T19:39:00.838Z,34.30
2022-12-24T19:41:30.424Z,32.63
2022-12-24T19:44:00.338Z,34.13
2022-12-24T19:46:30.122Z,34.88
2022-12-24T19:48:59.816Z,36.85
2022-12-24T19:51:28.533Z,37.95
2022-12-24T19:53:57.137Z,41.50
2022-12-24T19:56:28.321Z,44.72
2022-12-24T19:58:57.275Z,33.47
2022-12-24T20:01:26.871Z,41.72
2022-12-24T20:03:55.420Z,32.88
2022-12-24T20:06:25.664Z,33.35
2022-12-24T20:08:53.369Z,36.35
2022-12-24T20:11:23.062Z,34.58
2022-12-24T20:13:52.094Z,31.70
2022-12-24T20:16:21.501Z,45.25
2022-12-24T20:18:52.670Z,34.38
2022-12-24T20:21:20.814Z,37.72
2022-12-24T20:23:48.812Z,28.30
2022-12-24T20:26:18.244Z,29.45
2022-12-24T20:28:46.809Z,30.90
2022-12-24T20:31:18.738Z,23.27
2022-12-24T20:33:46.889Z,32.53
2022-12-24T20:36:16.820Z,51.83
2022-12-24T20:38:45.105Z,36.60
2022-12-24T20:41:14.069Z,42.75
2022-12-24T20:43:47.801Z,36.33
2022-12-24T20:46:18.626Z,31.80
2022-12-24T20:48:46.449Z,31.95
2022-12-24T20:51:23.247Z,37.90
2022-12-24T20:53:52.463Z,36.38
2022-12-24T20:56:20.343Z,24.23
2022-12-24T20:58:48.087Z,26.05
2022-12-24T21:01:19.730Z,36.47
2022-12-24T21:03:47.681Z,26.75
2022-12-24T21:06:17.653Z,31.55
2022-12-24T21:08:45.498Z,36.53
2022-12-24T21:11:30.654Z,38.85
2022-12-24T21:13:58.387Z,28.00
2022-12-24T21:16:27.426Z,37.45
2022-12-24T21:18:55.189Z,35.33
2022-12-24T21:21:22.973Z,31.90
2022-12-24T21:23:50.838Z,30.80
2022-12-24T21:26:18.604Z,27.08
2022-12-24T21:28:46.339Z,26.05
2022-12-24T21:31:15.634Z,23.75
2022-12-24T21:33:44.763Z,31.90
2022-12-24T21:36:13.527Z,26.88
2022-12-24T21:38:41.549Z,33.10
2022-12-24T21:41:11.716Z,28.10
2022-12-24T21:43:39.737Z,27.70
2022-12-24T21:46:08.992Z,27.70
2022-12-24T21:48:55.517Z,20.17
2022-12-24T21:51:26.486Z,19.20
2022-12-24T21:54:12.087Z,41.30
2022-12-24T21:56:54.014Z,43.75
2022-12-24T21:59:26.390Z,38.15
2022-12-24T22:01:54.782Z,46.22
2022-12-24T22:04:22.784Z,44.72
2022-12-24T22:07:08.949Z,38.15
2022-12-24T22:09:55.487Z,43.03
2022-12-24T22:12:23.256Z,36.90
2022-12-24T22:14:51.090Z,28.15
2022-12-24T22:17:24.686Z,34.70
2022-12-24T22:19:53.320Z,42.83
2022-12-24T22:22:23.032Z,36.20
2022-12-24T22:24:50.824Z,41.85
2022-12-24T22:27:18.651Z,41.05
2022-12-24T22:29:46.601Z,39.78
2022-12-24T22:32:14.602Z,28.95
2022-12-24T22:34:42.325Z,42.40
2022-12-24T22:37:10.049Z,38.58
2022-12-24T22:39:39.131Z,32.97
2022-12-24T22:42:06.967Z,38.30
2022-12-24T22:44:34.701Z,32.78
2022-12-24T22:47:02.638Z,22.23
2022-12-24T22:49:30.336Z,31.77
2022-12-24T22:51:58.706Z,39.30
2022-12-24T22:54:26.660Z,32.75
2022-12-24T22:56:55.728Z,32.63
2022-12-24T22:59:23.448Z,25.30
2022-12-24T23:01:52.494Z,33.05
2022-12-24T23:04:20.675Z,23.23
2022-12-24T23:06:48.704Z,27.23
2022-12-24T23:09:16.971Z,32.38
2022-12-24T23:11:45.673Z,20.15
2022-12-24T23:14:35.541Z,26.02
2022-12-24T23:17:03.442Z,31.50
2022-12-24T23:19:33.396Z,18.27
2022-12-24T23:22:02.210Z,43.13
2022-12-24T23:24:30.458Z,23.75
2022-12-24T23:26:58.780Z,28.23
2022-12-24T23:29:28.046Z,23.73
2022-12-24T23:31:56.677Z,37.15
2022-12-24T23:34:24.444Z,34.78
2022-12-24T23:36:52.155Z,26.40
2022-12-24T23:39:20.029Z,44.65
2022-12-24T23:41:47.683Z,29.60
2022-12-24T23:44:15.436Z,34.63
2022-12-24T23:46:44.546Z,32.10
2022-12-24T23:49:15.118Z,40.70
2022-12-24T23:51:43.016Z,27.63
2022-12-24T23:54:10.894Z,24.17
2022-12-24T23:56:38.735Z,25.40
2022-12-24T23:59:06.443Z,27.23
